createdAt,value
2019-01-22T00:00:18.471Z,26.07
2019-01-22T00:02:47.220Z,25.90
2019-01-22T00:05:15.719Z,23.20
2019-01-22T00:07:44.484Z,24.80
2019-01-22T00:10:13.415Z,24.30
2019-01-22T00:12:41.854Z,24.20
2019-01-22T00:15:12.763Z,25.80
2019-01-22T00:17:41.812Z,25.10
2019-01-22T00:20:12.738Z,24.37
2019-01-22T00:22:41.543Z,24.13
2019-01-22T00:25:15.082Z,23.73
2019-01-22T00:27:43.821Z,25.83
2019-01-22T00:30:18.658Z,25.90
2019-01-22T00:32:47.163Z,26.87
2019-01-22T00:35:16.228Z,26.00
2019-01-22T00:37:45.065Z,25.57
2019-01-22T00:40:16.606Z,26.43
2019-01-22T00:42:45.477Z,22.23
2019-01-22T00:45:14.614Z,25.23
2019-01-22T00:47:43.216Z,23.50
2019-01-22T00:50:17.423Z,25.07
2019-01-22T00:52:46.128Z,26.33
2019-01-22T00:55:18.102Z,24.43
2019-01-22T00:57:46.965Z,23.00
2019-01-22T01:00:21.297Z,25.10
2019-01-22T01:02:50.157Z,24.33
2019-01-22T01:05:18.975Z,25.37
2019-01-22T01:07:47.962Z,23.80
2019-01-22T01:10:17.702Z,24.50
2019-01-22T01:12:46.534Z,23.90
2019-01-22T01:15:15.863Z,24.53
2019-01-22T01:17:44.439Z,22.40
2019-01-22T01:20:21.356Z,23.50
2019-01-22T01:22:49.875Z,22.60
2019-01-22T01:25:20.840Z,22.03
2019-01-22T01:27:49.717Z,25.20
2019-01-22T01:30:21.452Z,23.93
2019-01-22T01:32:50.382Z,22.10
2019-01-22T01:35:19.137Z,22.17
2019-01-22T01:37:47.901Z,23.63
2019-01-22T01:40:17.673Z,22.00
2019-01-22T01:42:46.580Z,23.07
2019-01-22T01:45:16.554Z,22.80
2019-01-22T01:47:45.569Z,21.67
2019-01-22T01:50:16.240Z,22.77
2019-01-22T01:52:45.018Z,23.00
2019-01-22T01:55:15.980Z,20.63
2019-01-22T01:57:44.790Z,21.87
2019-01-22T02:00:16.936Z,22.23
2019-01-22T02:02:45.858Z,21.70
2019-01-22T02:05:14.724Z,21.67
2019-01-22T02:07:43.502Z,22.97
2019-01-22T02:10:14.926Z,22.43
2019-01-22T02:12:49.415Z,21.00
2019-01-22T02:15:23.666Z,20.83
2019-01-22T02:18:03.853Z,21.10
2019-01-22T02:20:41.445Z,21.20
2019-01-22T02:23:18.656Z,20.23
2019-01-22T02:25:50.424Z,21.63
2019-01-22T02:28:36.840Z,19.83
2019-01-22T02:31:25.650Z,20.80
2019-01-22T02:33:57.409Z,20.40
2019-01-22T02:36:46.753Z,20.97
2019-01-22T02:39:24.394Z,19.77
2019-01-22T02:41:56.178Z,22.47
2019-01-22T02:44:44.486Z,21.40
2019-01-22T02:47:21.619Z,21.60
2019-01-22T02:50:02.311Z,19.53
2019-01-22T02:52:52.057Z,20.80
2019-01-22T02:55:23.529Z,20.93
2019-01-22T02:58:13.329Z,21.13
2019-01-22T03:00:57.133Z,22.13
2019-01-22T03:03:55.721Z,21.57
2019-01-22T03:06:51.482Z,21.37
2019-01-22T03:09:26.220Z,20.00
2019-01-22T03:12:07.416Z,21.60
2019-01-22T03:14:57.077Z,22.57
2019-01-22T03:17:34.204Z,23.37
2019-01-22T03:20:05.959Z,22.20
2019-01-22T03:22:45.975Z,21.17
2019-01-22T03:25:17.449Z,20.70
2019-01-22T03:27:55.537Z,24.93
2019-01-22T03:30:46.600Z,22.00
2019-01-22T03:33:33.215Z,21.07
2019-01-22T03:36:10.657Z,25.90
2019-01-22T03:38:54.014Z,23.73
2019-01-22T03:41:28.854Z,25.73
2019-01-22T03:44:09.421Z,23.70
2019-01-22T03:47:00.527Z,21.00
2019-01-22T03:49:32.287Z,24.73
2019-01-22T03:52:06.951Z,23.67
2019-01-22T03:54:53.639Z,22.00
2019-01-22T03:57:28.050Z,21.17
2019-01-22T03:59:56.968Z,21.83
2019-01-22T04:02:27.060Z,21.50
2019-01-22T04:04:55.549Z,19.77
2019-01-22T04:07:24.246Z,21.10
2019-01-22T04:09:54.604Z,18.80
2019-01-22T04:12:23.402Z,20.30
2019-01-22T04:14:52.150Z,20.10
2019-01-22T04:17:20.632Z,18.80
2019-01-22T04:19:49.487Z,19.23
2019-01-22T04:22:20.483Z,19.03
2019-01-22T04:24:55.188Z,19.33
2019-01-22T04:27:29.958Z,18.67
2019-01-22T04:30:21.091Z,18.07
2019-01-22T04:32:52.852Z,18.93
2019-01-22T04:35:30.478Z,19.20
2019-01-22T04:38:05.075Z,18.53
2019-01-22T04:40:53.638Z,18.57
2019-01-22T04:43:25.400Z,18.80
2019-01-22T04:46:03.298Z,19.40
2019-01-22T04:48:56.213Z,20.13
2019-01-22T04:51:33.859Z,18.17
2019-01-22T04:54:09.610Z,20.03
2019-01-22T04:56:59.934Z,19.30
2019-01-22T04:59:40.766Z,19.77
2019-01-22T05:02:30.268Z,19.30
2019-01-22T05:05:13.843Z,18.80
2019-01-22T05:07:45.587Z,21.03
2019-01-22T05:10:17.321Z,20.37
2019-01-22T05:12:58.169Z,18.47
2019-01-22T05:15:53.895Z,19.80
2019-01-22T05:18:58.708Z,18.70
2019-01-22T05:21:30.181Z,18.77
2019-01-22T05:24:31.756Z,19.10
2019-01-22T05:27:11.966Z,19.77
2019-01-22T05:29:46.641Z,20.90
2019-01-22T05:32:49.675Z,19.33
2019-01-22T05:35:51.300Z,19.50
2019-01-22T05:38:38.052Z,20.20
2019-01-22T05:41:09.955Z,18.43
2019-01-22T05:43:59.951Z,18.70
2019-01-22T05:46:31.755Z,19.00
2019-01-22T05:49:06.763Z,19.40
2019-01-22T05:51:38.623Z,17.63
2019-01-22T05:54:16.247Z,18.17
2019-01-22T05:56:53.516Z,17.40
2019-01-22T05:59:41.766Z,19.07
2019-01-22T06:02:13.072Z,19.40
2019-01-22T06:05:02.861Z,19.50
2019-01-22T06:07:42.978Z,18.57
2019-01-22T06:10:37.160Z,19.60
2019-01-22T06:13:17.770Z,20.00
2019-01-22T06:16:13.349Z,19.07
2019-01-22T06:18:47.839Z,19.03
2019-01-22T06:21:35.794Z,18.07
2019-01-22T06:24:19.400Z,19.93
2019-01-22T06:26:57.112Z,18.80
2019-01-22T06:29:31.109Z,19.30
2019-01-22T06:32:05.595Z,19.40
2019-01-22T06:34:55.326Z,18.20
2019-01-22T06:37:38.768Z,18.30
2019-01-22T06:40:22.684Z,18.80
2019-01-22T06:43:06.316Z,29.00
2019-01-22T06:45:44.093Z,26.03
2019-01-22T06:48:42.017Z,18.30
2019-01-22T06:51:25.861Z,20.30
2019-01-22T06:54:09.560Z,18.90
2019-01-22T06:56:50.029Z,17.20
2019-01-22T06:59:27.179Z,18.27
2019-01-22T07:01:58.901Z,18.80
2019-01-22T07:04:44.960Z,17.87
2019-01-22T07:07:25.131Z,19.77
2019-01-22T07:10:08.734Z,18.97
2019-01-22T07:12:52.319Z,28.17
2019-01-22T07:15:30.092Z,18.80
2019-01-22T07:18:23.061Z,19.13
2019-01-22T07:21:10.864Z,19.30
2019-01-22T07:23:54.456Z,19.90
2019-01-22T07:26:40.985Z,19.90
2019-01-22T07:29:18.668Z,19.53
2019-01-22T07:31:59.376Z,20.97
2019-01-22T07:34:39.676Z,27.90
2019-01-22T07:37:20.066Z,23.53
2019-01-22T07:40:11.540Z,22.87
2019-01-22T07:42:55.369Z,23.63
2019-01-22T07:45:32.708Z,21.03
2019-01-22T07:48:04.201Z,20.67
2019-01-22T07:50:57.383Z,22.10
2019-01-22T07:53:37.404Z,23.00
2019-01-22T07:56:17.971Z,20.90
2019-01-22T07:58:58.383Z,22.50
2019-01-22T08:01:57.411Z,21.30
2019-01-22T08:04:33.492Z,20.17
2019-01-22T08:07:29.393Z,23.20
2019-01-22T08:10:12.697Z,22.33
2019-01-22T08:12:44.479Z,22.50
2019-01-22T08:15:25.370Z,21.17
2019-01-22T08:18:15.146Z,22.20
2019-01-22T08:20:55.379Z,21.33
2019-01-22T08:23:35.856Z,22.30
2019-01-22T08:26:19.453Z,23.83
2019-01-22T08:29:02.357Z,23.50
2019-01-22T08:32:01.128Z,21.93
2019-01-22T08:34:50.925Z,21.90
2019-01-22T08:37:40.283Z,23.27
2019-01-22T08:40:23.826Z,23.10
2019-01-22T08:43:17.792Z,24.03
2019-01-22T08:45:52.295Z,22.53
2019-01-22T08:48:40.557Z,21.93
2019-01-22T08:51:43.878Z,22.67
2019-01-22T08:54:43.308Z,24.23
2019-01-22T08:57:30.149Z,20.60
2019-01-22T09:00:17.115Z,21.93
2019-01-22T09:02:57.582Z,20.53
2019-01-22T09:05:38.075Z,20.70
2019-01-22T09:08:15.584Z,23.97
2019-01-22T09:11:05.606Z,21.83
2019-01-22T09:13:52.182Z,20.30
2019-01-22T09:16:32.598Z,19.87
2019-01-22T09:19:16.122Z,19.63
2019-01-22T09:22:05.765Z,18.43
2019-01-22T09:24:43.439Z,19.43
2019-01-22T09:27:34.880Z,18.57
2019-01-22T09:30:35.592Z,19.23
2019-01-22T09:33:09.881Z,18.73
2019-01-22T09:35:47.175Z,18.60
2019-01-22T09:38:15.707Z,19.10
2019-01-22T09:40:44.463Z,19.23
2019-01-22T09:43:13.270Z,19.10
2019-01-22T09:45:41.754Z,18.70
2019-01-22T09:48:10.589Z,19.23
2019-01-22T09:50:39.089Z,18.47
2019-01-22T09:53:07.848Z,17.97
2019-01-22T09:55:36.597Z,21.10
2019-01-22T09:58:05.477Z,18.20
2019-01-22T10:00:34.313Z,18.90
2019-01-22T10:03:02.823Z,19.47
2019-01-22T10:05:31.258Z,18.53
2019-01-22T10:07:59.973Z,19.43
2019-01-22T10:10:28.743Z,19.83
2019-01-22T10:12:57.510Z,19.83
2019-01-22T10:15:26.290Z,21.27
2019-01-22T10:17:55.052Z,18.77
2019-01-22T10:20:24.712Z,21.17
2019-01-22T10:22:53.545Z,20.03
2019-01-22T10:25:22.035Z,19.43
2019-01-22T10:27:51.314Z,20.60
2019-01-22T10:30:25.065Z,21.83
2019-01-22T10:32:53.749Z,20.37
2019-01-22T10:35:22.321Z,21.50
2019-01-22T10:37:50.871Z,19.53
2019-01-22T10:40:22.693Z,19.90
2019-01-22T10:42:51.251Z,20.30
2019-01-22T10:45:20.764Z,20.60
2019-01-22T10:47:49.626Z,21.70
2019-01-22T10:50:20.745Z,20.60
2019-01-22T10:52:49.437Z,19.90
2019-01-22T10:55:18.008Z,20.93
2019-01-22T10:57:46.779Z,21.17
2019-01-22T11:00:21.333Z,19.77
2019-01-22T11:02:50.073Z,21.03
2019-01-22T11:05:27.241Z,20.93
2019-01-22T11:07:55.951Z,22.17
2019-01-22T11:10:24.425Z,21.80
2019-01-22T11:12:53.125Z,21.47
2019-01-22T11:15:27.880Z,22.03
2019-01-22T11:17:52.221Z,22.70
2019-01-22T11:20:26.330Z,24.93
2019-01-22T11:22:54.866Z,22.17
2019-01-22T11:25:26.151Z,23.77
2019-01-22T11:27:54.858Z,21.20
2019-01-22T11:30:25.337Z,21.77
2019-01-22T11:32:55.630Z,22.33
2019-01-22T11:35:25.107Z,22.17
2019-01-22T11:37:53.961Z,23.63
2019-01-22T11:40:43.056Z,21.23
2019-01-22T11:43:11.551Z,23.40
2019-01-22T11:45:40.132Z,22.10
2019-01-22T11:48:09.900Z,24.33
2019-01-22T11:50:38.650Z,23.57
2019-01-22T11:53:07.443Z,23.10
2019-01-22T11:55:36.203Z,24.23
2019-01-22T11:58:05.651Z,22.83
2019-01-22T12:00:37.672Z,21.70
2019-01-22T12:03:06.147Z,22.40
2019-01-22T12:05:34.973Z,21.83
2019-01-22T12:08:03.764Z,21.23
2019-01-22T12:10:32.210Z,22.60
2019-01-22T12:13:00.998Z,23.80
2019-01-22T12:15:29.677Z,21.57
2019-01-22T12:17:58.433Z,22.37
2019-01-22T12:20:36.049Z,22.70
2019-01-22T12:23:04.875Z,20.97
2019-01-22T12:25:33.320Z,22.13
2019-01-22T12:28:02.206Z,21.33
2019-01-22T12:30:37.991Z,22.50
2019-01-22T12:33:06.967Z,21.20
2019-01-22T12:35:35.739Z,23.60
2019-01-22T12:38:05.182Z,23.27
2019-01-22T12:40:33.909Z,21.60
2019-01-22T12:43:02.665Z,22.57
2019-01-22T12:45:34.015Z,21.50
2019-01-22T12:48:02.755Z,21.10
2019-01-22T12:50:31.596Z,23.90
2019-01-22T12:53:00.349Z,24.87
2019-01-22T12:55:28.852Z,22.40
2019-01-22T12:57:57.264Z,23.17
2019-01-22T13:00:34.577Z,21.13
2019-01-22T13:03:03.445Z,22.40
2019-01-22T13:05:35.174Z,22.60
2019-01-22T13:08:04.242Z,22.03
2019-01-22T13:10:32.711Z,23.73
2019-01-22T13:13:01.487Z,23.17
2019-01-22T13:15:30.302Z,23.03
2019-01-22T13:17:59.052Z,21.43
2019-01-22T13:20:27.894Z,20.17
2019-01-22T13:22:56.391Z,21.70
2019-01-22T13:25:25.349Z,20.40
2019-01-22T13:27:54.049Z,23.10
2019-01-22T13:30:29.869Z,21.47
2019-01-22T13:32:59.695Z,21.30
2019-01-22T13:35:28.235Z,21.67
2019-01-22T13:37:56.814Z,22.60
2019-01-22T13:40:25.652Z,20.90
2019-01-22T13:42:54.400Z,20.93
2019-01-22T13:45:26.123Z,22.40
2019-01-22T13:47:55.484Z,21.67
2019-01-22T13:50:24.750Z,22.10
2019-01-22T13:52:53.720Z,22.80
2019-01-22T13:55:24.897Z,21.93
2019-01-22T13:57:53.663Z,21.80
2019-01-22T14:00:27.003Z,21.23
2019-01-22T14:02:56.827Z,23.20
2019-01-22T14:05:25.675Z,21.40
2019-01-22T14:07:54.178Z,19.27
2019-01-22T14:10:23.060Z,23.27
2019-01-22T14:12:51.784Z,22.90
2019-01-22T14:15:30.541Z,21.83
2019-01-22T14:17:59.224Z,22.33
2019-01-22T14:20:27.920Z,22.70
2019-01-22T14:22:56.700Z,21.50
2019-01-22T14:25:25.546Z,22.03
2019-01-22T14:27:54.408Z,22.93
2019-01-22T14:30:26.183Z,19.80
2019-01-22T14:32:54.996Z,21.70
2019-01-22T14:35:23.836Z,23.33
2019-01-22T14:37:52.388Z,23.63
2019-01-22T14:40:20.988Z,21.70
2019-01-22T14:42:49.463Z,22.00
2019-01-22T14:45:20.205Z,20.70
2019-01-22T14:47:48.998Z,22.67
2019-01-22T14:50:20.789Z,21.90
2019-01-22T14:55:40.774Z,21.43
2019-01-22T14:58:09.589Z,22.33
2019-01-22T15:00:38.363Z,24.40
2019-01-22T15:03:07.396Z,23.03
2019-01-22T15:05:35.847Z,22.00
2019-01-22T15:08:04.635Z,23.47
2019-01-22T15:10:33.137Z,21.97
2019-01-22T15:13:01.936Z,23.10
2019-01-22T15:15:30.799Z,22.00
2019-01-22T15:17:59.638Z,20.07
2019-01-22T15:20:28.495Z,22.50
2019-01-22T15:22:57.245Z,21.10
2019-01-22T15:25:26.071Z,22.03
2019-01-22T15:27:54.887Z,21.37
2019-01-22T15:30:32.099Z,22.17
2019-01-22T15:33:00.966Z,24.83
2019-01-22T15:35:29.728Z,22.20
2019-01-22T15:37:59.951Z,21.80
2019-01-22T15:40:30.299Z,23.00
2019-01-22T15:42:59.066Z,22.60
2019-01-22T15:45:27.889Z,21.87
2019-01-22T15:47:56.838Z,21.77
2019-01-22T15:50:25.605Z,21.70
2019-01-22T15:52:54.407Z,22.93
2019-01-22T15:55:28.767Z,23.20
2019-01-22T15:57:57.704Z,22.03
2019-01-22T16:00:27.841Z,22.50
2019-01-22T16:02:56.619Z,22.63
2019-01-22T16:05:25.142Z,23.70
2019-01-22T16:07:53.990Z,23.60
2019-01-22T16:10:22.859Z,24.27
2019-01-22T16:12:51.647Z,24.00
2019-01-22T16:15:22.655Z,22.70
2019-01-22T16:17:51.744Z,24.03
2019-01-22T16:20:22.689Z,23.70
2019-01-22T16:22:51.526Z,22.60
2019-01-22T16:25:20.342Z,23.70
2019-01-22T16:27:49.082Z,24.63
2019-01-22T16:30:22.710Z,24.03
2019-01-22T16:32:51.268Z,23.80
2019-01-22T16:35:21.449Z,24.93
2019-01-22T16:37:50.256Z,24.00
2019-01-22T16:40:19.040Z,22.43
2019-01-22T16:42:48.403Z,22.97
2019-01-22T16:45:25.943Z,26.10
2019-01-22T16:47:54.740Z,25.03
2019-01-22T16:50:23.514Z,31.90
2019-01-22T16:52:52.407Z,25.67
2019-01-22T16:55:26.998Z,25.57
2019-01-22T16:57:55.408Z,24.17
2019-01-22T17:00:29.471Z,25.87
2019-01-22T17:02:57.970Z,23.87
2019-01-22T17:05:26.911Z,24.93
2019-01-22T17:07:55.690Z,26.80
2019-01-22T17:10:24.451Z,28.20
2019-01-22T17:12:53.264Z,27.90
2019-01-22T17:15:21.741Z,26.30
2019-01-22T17:17:50.532Z,26.87
2019-01-22T17:20:25.007Z,26.40
2019-01-22T17:22:53.814Z,28.50
2019-01-22T17:25:22.528Z,27.53
2019-01-22T17:27:51.197Z,26.67
2019-01-22T17:30:21.561Z,26.13
2019-01-22T17:32:54.992Z,25.63
2019-01-22T17:35:24.733Z,27.00
2019-01-22T17:37:53.404Z,27.70
2019-01-22T17:40:21.866Z,27.57
2019-01-22T17:42:50.544Z,27.60
2019-01-22T17:45:19.470Z,25.00
2019-01-22T17:47:48.164Z,28.50
2019-01-22T17:50:17.541Z,25.17
2019-01-22T17:52:46.341Z,31.40
2019-01-22T17:55:15.444Z,29.67
2019-01-22T17:57:43.967Z,29.50
2019-01-22T18:00:19.826Z,27.47
2019-01-22T18:02:48.347Z,47.00
2019-01-22T18:05:18.882Z,34.47
2019-01-22T18:07:48.556Z,29.00
2019-01-22T18:10:19.200Z,28.50
2019-01-22T18:12:47.899Z,28.07
2019-01-22T18:15:17.556Z,27.97
2019-01-22T18:17:46.323Z,27.30
2019-01-22T18:20:28.965Z,28.00
2019-01-22T18:22:57.679Z,27.10
2019-01-22T18:25:26.460Z,31.47
2019-01-22T18:27:55.367Z,28.00
2019-01-22T18:30:25.717Z,28.60
2019-01-22T18:32:56.704Z,27.33
2019-01-22T18:35:40.083Z,29.30
2019-01-22T18:38:08.837Z,27.67
2019-01-22T18:40:37.614Z,29.67
2019-01-22T18:43:06.997Z,28.03
2019-01-22T18:45:35.579Z,26.50
2019-01-22T18:48:04.479Z,26.67
2019-01-22T18:50:33.314Z,27.70
2019-01-22T18:53:02.005Z,26.90
2019-01-22T18:55:30.448Z,31.10
2019-01-22T18:57:59.119Z,31.27
2019-01-22T19:00:27.976Z,28.50
2019-01-22T19:02:56.495Z,29.33
2019-01-22T19:05:25.274Z,28.93
2019-01-22T19:07:53.799Z,26.77
2019-01-22T19:10:27.541Z,27.20
2019-01-22T19:12:56.278Z,49.00
2019-01-22T19:15:25.200Z,34.80
2019-01-22T19:17:53.946Z,29.80
2019-01-22T19:20:22.658Z,27.33
2019-01-22T19:22:51.421Z,28.60
2019-01-22T19:25:25.742Z,26.90
2019-01-22T19:27:54.158Z,28.00
2019-01-22T19:30:25.134Z,27.30
2019-01-22T19:32:53.624Z,26.60
2019-01-22T19:35:22.378Z,32.00
2019-01-22T19:37:51.185Z,29.40
2019-01-22T19:40:20.179Z,27.73
2019-01-22T19:42:48.984Z,28.53
2019-01-22T19:45:28.749Z,29.87
2019-01-22T19:47:57.238Z,26.90
2019-01-22T19:50:26.032Z,26.63
2019-01-22T19:52:55.349Z,24.40
2019-01-22T19:55:24.028Z,29.63
2019-01-22T19:57:52.822Z,33.07
2019-01-22T20:00:23.941Z,32.00
2019-01-22T20:02:52.729Z,26.77
2019-01-22T20:05:21.570Z,25.40
2019-01-22T20:07:50.347Z,28.60
2019-01-22T20:10:19.117Z,26.20
2019-01-22T20:12:48.103Z,29.27
2019-01-22T20:15:21.469Z,36.03
2019-01-22T20:17:50.289Z,28.07
2019-01-22T20:20:19.973Z,30.33
2019-01-22T20:22:48.665Z,31.07
2019-01-22T20:25:18.014Z,30.67
2019-01-22T20:27:48.181Z,32.37
2019-01-22T20:30:25.818Z,28.97
2019-01-22T20:32:54.569Z,28.37
2019-01-22T20:35:23.385Z,28.50
2019-01-22T20:37:52.232Z,27.27
2019-01-22T20:40:21.015Z,28.40
2019-01-22T20:42:49.417Z,29.23
2019-01-22T20:45:21.020Z,28.33
2019-01-22T20:47:49.506Z,28.87
2019-01-22T20:50:19.461Z,26.47
2019-01-22T20:52:48.440Z,28.53
2019-01-22T20:55:22.247Z,28.80
2019-01-22T20:57:54.755Z,27.57
2019-01-22T21:00:23.576Z,55.10
2019-01-22T21:02:52.520Z,38.47
2019-01-22T21:05:22.888Z,31.27
2019-01-22T21:07:51.434Z,29.67
2019-01-22T21:10:23.075Z,29.10
2019-01-22T21:12:51.493Z,28.90
2019-01-22T21:15:20.291Z,29.07
2019-01-22T21:17:49.228Z,27.30
2019-01-22T21:20:21.852Z,30.87
2019-01-22T21:22:50.699Z,26.57
2019-01-22T21:25:21.719Z,30.40
2019-01-22T21:27:50.767Z,29.50
2019-01-22T21:30:27.574Z,28.23
2019-01-22T21:32:57.604Z,32.70
2019-01-22T21:35:27.423Z,29.80
2019-01-22T21:37:55.905Z,29.27
2019-01-22T21:40:24.537Z,30.40
2019-01-22T21:42:53.302Z,29.17
2019-01-22T21:45:24.371Z,30.57
2019-01-22T21:47:53.261Z,44.53
2019-01-22T21:50:22.078Z,37.43
2019-01-22T21:52:50.536Z,29.10
2019-01-22T21:55:21.747Z,29.00
2019-01-22T21:57:50.327Z,30.27
2019-01-22T22:00:28.490Z,30.63
2019-01-22T22:02:57.382Z,27.77
2019-01-22T22:05:28.898Z,28.00
2019-01-22T22:07:57.813Z,29.63
2019-01-22T22:10:27.176Z,29.20
2019-01-22T22:12:55.652Z,28.70
2019-01-22T22:15:26.181Z,29.63
2019-01-22T22:17:54.653Z,29.83
2019-01-22T22:20:23.413Z,29.90
2019-01-22T22:22:51.909Z,29.10
2019-01-22T22:25:23.980Z,32.47
2019-01-22T22:27:52.837Z,30.40
2019-01-22T22:30:27.275Z,29.80
2019-01-22T22:32:55.956Z,30.93
2019-01-22T22:35:24.522Z,29.20
2019-01-22T22:37:53.261Z,30.20
2019-01-22T22:40:22.781Z,29.37
2019-01-22T22:42:51.346Z,29.57
2019-01-22T22:45:23.096Z,30.77
2019-01-22T22:47:52.331Z,32.47
2019-01-22T22:50:26.107Z,30.50
2019-01-22T22:52:54.892Z,29.50
2019-01-22T22:55:23.644Z,30.33
2019-01-22T22:57:52.399Z,28.77
2019-01-22T23:00:40.028Z,29.03
2019-01-22T23:03:08.975Z,27.63
2019-01-22T23:05:38.441Z,29.00
2019-01-22T23:08:06.936Z,29.53
2019-01-22T23:10:35.789Z,32.60
2019-01-22T23:13:05.020Z,35.33
2019-01-22T23:15:33.666Z,28.90
2019-01-22T23:18:02.175Z,30.20
2019-01-22T23:20:30.649Z,30.23
2019-01-22T23:22:59.078Z,28.03
2019-01-22T23:25:27.489Z,30.60
2019-01-22T23:27:55.992Z,28.07
2019-01-22T23:30:24.755Z,31.77
2019-01-22T23:32:54.832Z,29.60
2019-01-22T23:35:23.643Z,29.30
2019-01-22T23:37:52.101Z,29.60
2019-01-22T23:40:20.960Z,29.60
2019-01-22T23:42:49.713Z,30.13
2019-01-22T23:45:18.543Z,29.50
2019-01-22T23:47:47.271Z,28.50
2019-01-22T23:50:16.406Z,28.00
2019-01-22T23:52:45.232Z,27.77
2019-01-22T23:55:19.433Z,26.67
2019-01-22T23:57:48.206Z,28.40
